Time;durP1;ratioP1;P1;durP2;ratioP2;P2;SDS_P1;SDS_P2;PMS_P1;PMS_P2;Temp;Humidity;BMP_temperature;BMP_pressure;BME280_temperature;BME280_humidity;BME280_pressure;Samples;Min_cycle;Max_cycle;Signal;HPM_P1;HPM_P2
2021/08/02 00:01:02;;;;;;;1.58;1.33;;;;;;;18.01;66.78;100042.03;5082833;28;20131;-78
2021/08/02 00:03:40;;;;;;;4.15;1.50;;;;;;;17.99;67.01;100043.97;5072554;28;20060;-78
2021/08/02 00:06:08;;;;;;;1.77;1.50;;;;;;;17.92;67.17;100037.44;5074219;28;20049;-78
2021/08/02 00:08:55;;;;;;;2.45;1.77;;;;;;;17.86;67.37;100038.78;5074899;28;20048;-79
2021/08/02 00:11:29;;;;;;;2.60;1.80;;;;;;;17.82;67.85;100040.88;5070023;28;20076;-79
2021/08/02 00:13:58;;;;;;;3.10;1.65;;;;;;;17.81;67.84;100039.16;5056352;28;20395;-79
2021/08/02 00:16:25;;;;;;;1.90;1.45;;;;;;;17.77;67.88;100040.41;5072314;28;20052;-78
2021/08/02 00:18:52;;;;;;;2.05;1.60;;;;;;;17.77;68.04;100043.09;5071489;28;20555;-79
2021/08/02 00:21:18;;;;;;;2.17;1.70;;;;;;;17.74;68.33;100045.16;5070599;28;20079;-79
2021/08/02 00:23:46;;;;;;;2.55;1.60;;;;;;;17.73;68.22;100043.47;5066543;28;20408;-79
2021/08/02 00:26:13;;;;;;;2.25;1.63;;;;;;;17.73;68.63;100049.66;5072893;28;20049;-78
2021/08/02 00:28:40;;;;;;;2.75;1.58;;;;;;;17.70;68.88;100046.38;5056335;28;20051;-79
2021/08/02 00:31:07;;;;;;;2.25;1.33;;;;;;;17.74;68.69;100054.06;5070996;28;20043;-78
2021/08/02 00:33:34;;;;;;;2.13;1.50;;;;;;;17.72;68.69;100047.13;5076012;28;20082;-78
2021/08/02 00:36:08;;;;;;;2.25;1.38;;;;;;;17.72;68.78;100056.00;5073094;28;20053;-78
2021/08/02 00:38:45;;;;;;;2.33;1.10;;;;;;;17.72;69.04;100058.69;5068238;28;20052;-79
2021/08/02 00:41:45;;;;;;;2.47;1.50;;;;;;;17.70;69.09;100051.75;5069932;28;20136;-79
2021/08/02 00:44:50;;;;;;;2.40;1.63;;;;;;;17.71;68.57;100056.13;5060464;28;20053;-79
2021/08/02 00:47:22;;;;;;;2.28;1.52;;;;;;;17.73;68.37;100054.19;5070783;28;20045;-78
2021/08/02 00:49:56;;;;;;;2.33;1.50;;;;;;;17.72;68.72;100053.31;5072168;28;20044;-79
2021/08/02 00:52:26;;;;;;;2.97;1.30;;;;;;;17.69;68.56;100053.56;5066868;28;20059;-78
2021/08/02 00:54:57;;;;;;;2.83;1.50;;;;;;;17.66;68.78;100053.81;5075297;28;20063;-79
2021/08/02 00:57:30;;;;;;;2.53;2.05;;;;;;;17.64;68.97;100054.91;5074629;28;20063;-78
2021/08/02 01:00:03;;;;;;;2.40;1.52;;;;;;;17.65;68.77;100051.25;5076080;28;20046;-78
2021/08/02 01:02:37;;;;;;;1.92;1.60;;;;;;;17.58;69.02;100056.25;5076202;28;20059;-79
2021/08/02 01:05:12;;;;;;;1.77;1.27;;;;;;;17.59;68.88;100057.94;5071932;28;20125;-79
2021/08/02 01:07:49;;;;;;;2.22;1.70;;;;;;;17.56;69.16;100054.66;5067921;28;20044;-79
2021/08/02 01:10:18;;;;;;;3.28;1.70;;;;;;;17.54;69.21;100063.66;5069164;28;20064;-80
2021/08/02 01:12:50;;;;;;;1.90;1.70;;;;;;;17.51;69.65;100071.09;5070579;28;20480;-79
2021/08/02 01:15:18;;;;;;;1.65;1.55;;;;;;;17.52;69.42;100067.44;5070796;28;20072;-79
2021/08/02 01:17:46;;;;;;;3.17;1.77;;;;;;;17.53;69.31;100063.78;5068552;28;20054;-79
2021/08/02 01:20:14;;;;;;;1.85;1.58;;;;;;;17.56;69.53;100068.91;5065151;28;20061;-79
2021/08/02 01:22:42;;;;;;;2.72;1.98;;;;;;;17.54;69.69;100069.03;5064841;28;20080;-79
2021/08/02 01:25:34;;;;;;;2.70;1.67;;;;;;;17.55;69.50;100072.56;5050875;28;20411;-79
2021/08/02 01:28:12;;;;;;;1.98;1.52;;;;;;;17.57;69.37;100070.59;5070476;28;20072;-79
2021/08/02 01:30:44;;;;;;;2.80;1.55;;;;;;;17.52;69.44;100062.09;5067873;28;20048;-79
2021/08/02 01:33:12;;;;;;;2.00;1.67;;;;;;;17.54;69.34;100068.16;5068369;28;20049;-79
2021/08/02 01:35:42;;;;;;;3.00;1.58;;;;;;;17.49;69.69;100067.69;5068438;28;20056;-79
2021/08/02 01:38:11;;;;;;;2.72;1.60;;;;;;;17.45;69.85;100076.97;5068011;28;20044;-79
2021/08/02 01:40:38;;;;;;;3.60;1.85;;;;;;;17.41;69.88;100070.16;5070133;28;20052;-79
2021/08/02 01:43:06;;;;;;;2.63;1.60;;;;;;;17.32;70.42;100061.00;5069318;28;20154;-79
2021/08/02 01:45:44;;;;;;;3.65;1.48;;;;;;;17.30;70.58;100072.84;5070406;28;20044;-79
2021/08/02 01:48:14;;;;;;;1.70;1.50;;;;;;;17.27;70.63;100073.06;5064752;28;20072;-79
2021/08/02 01:51:05;;;;;;;1.73;1.60;;;;;;;17.28;70.80;100072.97;5066180;28;20051;-79
2021/08/02 01:53:31;;;;;;;;;;;;;;;17.26;70.64;100072.22;5072529;28;20131;-79
2021/08/02 01:56:13;;;;;;;3.03;1.60;;;;;;;17.22;70.96;100069.91;5072250;28;19924;-79
2021/08/02 01:58:46;;;;;;;2.38;1.60;;;;;;;17.13;71.22;100075.03;5074014;28;20476;-79
2021/08/02 02:01:14;;;;;;;2.53;1.90;;;;;;;17.06;71.66;100067.59;5070888;28;20103;-79
2021/08/02 02:03:44;;;;;;;2.33;1.60;;;;;;;17.04;71.92;100075.72;5059623;28;20801;-79
2021/08/02 02:06:14;;;;;;;3.20;1.70;;;;;;;16.98;72.25;100070.88;5069885;28;20064;-79
2021/08/02 02:08:44;;;;;;;1.50;1.40;;;;;;;16.92;72.39;100071.34;5069349;28;20522;-79
2021/08/02 02:11:11;;;;;;;3.60;1.70;;;;;;;16.93;72.35;100081.09;5072504;28;20079;-79
2021/08/02 02:13:43;;;;;;;5.00;1.80;;;;;;;16.91;72.43;100077.69;5071966;28;20055;-79
2021/08/02 02:16:13;;;;;;;3.08;1.88;;;;;;;16.89;72.72;100079.63;5078045;28;20049;-79
2021/08/02 02:18:46;;;;;;;4.53;1.77;;;;;;;16.87;72.97;100078.03;5073816;28;20041;-79
2021/08/02 02:21:13;;;;;;;2.95;1.73;;;;;;;16.85;73.13;100075.47;5073127;28;20053;-79
2021/08/02 02:23:39;;;;;;;4.93;1.83;;;;;;;16.83;73.18;100074.75;5075994;28;20096;-78
2021/08/02 02:26:08;;;;;;;3.65;1.85;;;;;;;16.81;73.45;100074.88;5074933;28;20044;-78
2021/08/02 02:28:35;;;;;;;2.78;1.90;;;;;;;16.82;73.47;100087.28;5071945;28;20053;-78
2021/08/02 02:31:02;;;;;;;5.45;1.95;;;;;;;16.82;73.23;100091.78;5073185;28;20113;-78
2021/08/02 02:33:33;;;;;;;2.25;2.00;;;;;;;16.77;73.41;100073.41;5074737;28;20056;-80
2021/08/02 02:36:01;;;;;;;2.40;1.70;;;;;;;16.79;73.54;100086.66;5078426;28;20472;-78
2021/08/02 02:38:28;;;;;;;5.47;2.00;;;;;;;16.79;73.43;100089.34;5075165;28;20040;-78
2021/08/02 02:40:56;;;;;;;2.55;1.65;;;;;;;16.80;73.26;100091.91;5076589;28;20040;-79
2021/08/02 02:43:24;;;;;;;2.83;1.70;;;;;;;16.79;73.69;100089.34;5076049;28;20047;-79
2021/08/02 02:45:51;;;;;;;3.00;2.20;;;;;;;16.74;73.67;100081.66;5078578;28;20044;-79
2021/08/02 02:48:19;;;;;;;3.92;1.83;;;;;;;16.75;73.94;100098.56;5076968;28;20071;-78
2021/08/02 02:50:50;;;;;;;2.75;1.90;;;;;;;16.74;74.10;100102.19;5075794;28;20045;-78
2021/08/02 02:53:18;;;;;;;3.72;2.05;;;;;;;16.73;74.37;100095.16;5075396;28;20040;-79
2021/08/02 02:55:47;;;;;;;4.75;2.17;;;;;;;16.69;74.26;100093.66;5059342;28;20068;-79
2021/08/02 02:58:14;;;;;;;4.65;2.00;;;;;;;16.69;74.34;100086.50;5079564;28;20136;-78
2021/08/02 03:00:43;;;;;;;4.25;1.92;;;;;;;16.69;74.30;100102.53;5075466;28;20051;-78
2021/08/02 03:03:15;;;;;;;3.92;1.90;;;;;;;16.72;74.41;100101.47;5078024;28;20729;-79
2021/08/02 03:05:43;;;;;;;5.68;2.22;;;;;;;16.71;74.53;100092.59;5077227;28;20040;-78
2021/08/02 03:08:15;;;;;;;3.03;1.90;;;;;;;16.72;74.37;100098.78;5076576;28;20044;-78
2021/08/02 03:10:42;;;;;;;3.60;2.15;;;;;;;16.71;74.24;100102.44;5077670;28;20045;-79
2021/08/02 03:13:09;;;;;;;2.70;2.30;;;;;;;16.66;74.50;100096.59;5059924;28;20041;-78
2021/08/02 03:15:37;;;;;;;3.30;2.25;;;;;;;16.68;74.56;100100.00;5075746;28;20533;-79
2021/08/02 03:18:04;;;;;;;3.03;1.77;;;;;;;16.70;74.21;100101.56;5068839;28;20036;-79
2021/08/02 03:20:30;;;;;;;3.70;2.15;;;;;;;16.70;74.61;100109.59;5076522;28;20597;-78
2021/08/02 03:23:05;;;;;;;3.63;2.75;;;;;;;16.70;74.18;100108.75;5075726;28;20040;-79
2021/08/02 03:25:36;;;;;;;4.28;2.40;;;;;;;16.68;74.05;100116.06;5078337;28;20045;-79
2021/08/02 03:28:25;;;;;;;6.43;2.60;;;;;;;16.68;74.19;100118.72;5073143;28;20577;-79
2021/08/02 03:30:57;;;;;;;3.13;2.22;;;;;;;16.65;74.68;100117.13;5071849;28;22402;-79
2021/08/02 03:33:30;;;;;;;3.05;2.03;;;;;;;16.65;74.34;100130.50;5067375;28;20060;-78
2021/08/02 03:36:01;;;;;;;2.50;2.13;;;;;;;16.61;74.64;100125.47;5075818;28;20407;-78
2021/08/02 03:38:30;;;;;;;4.30;2.22;;;;;;;16.58;74.36;100115.84;5065068;28;20058;-79
2021/08/02 03:40:59;;;;;;;2.25;1.80;;;;;;;16.62;74.65;100129.84;5068159;28;20104;-78
2021/08/02 03:43:26;;;;;;;3.78;2.38;;;;;;;16.56;74.77;100128.47;5073357;28;20045;-78
2021/08/02 03:45:56;;;;;;;3.58;2.28;;;;;;;16.61;74.50;100139.69;5080601;28;20059;-78
2021/08/02 03:48:25;;;;;;;4.18;2.40;;;;;;;16.54;74.63;100121.53;5073724;28;20583;-78
2021/08/02 03:50:52;;;;;;;2.72;2.30;;;;;;;16.59;74.96;100140.78;5068391;28;20064;-78
2021/08/02 03:53:20;;;;;;;3.88;2.30;;;;;;;16.55;75.18;100136.63;5070542;28;20041;-78
2021/08/02 03:55:49;;;;;;;2.78;2.28;;;;;;;16.54;75.05;100142.94;5072727;28;20055;-79
2021/08/02 03:58:20;;;;;;;4.10;2.75;;;;;;;16.48;75.25;100131.75;5068634;28;20068;-79
2021/08/02 04:00:47;;;;;;;5.30;2.75;;;;;;;16.47;75.50;100138.06;5077956;28;20036;-79
2021/08/02 04:03:15;;;;;;;3.70;2.70;;;;;;;16.43;75.80;100144.59;5072530;28;20059;-79
2021/08/02 04:05:42;;;;;;;6.40;2.53;;;;;;;16.41;75.82;100148.34;5056626;28;20381;-79
2021/08/02 04:08:09;;;;;;;5.50;2.33;;;;;;;16.41;75.65;100149.19;5067841;28;20044;-79
2021/08/02 04:10:35;;;;;;;3.47;2.40;;;;;;;16.38;75.66;100154.78;5070772;28;20056;-78
2021/08/02 04:13:02;;;;;;;3.90;2.50;;;;;;;16.32;75.95;100149.91;5073607;28;20123;-78
2021/08/02 04:15:29;;;;;;;4.53;2.30;;;;;;;16.35;76.04;100151.50;5078308;28;20103;-78
2021/08/02 04:17:55;;;;;;;4.00;2.28;;;;;;;16.37;75.96;100160.25;5076490;28;20061;-79
2021/08/02 04:20:22;;;;;;;3.33;2.50;;;;;;;16.32;75.89;100157.91;5075021;28;20055;-79
2021/08/02 04:22:48;;;;;;;3.40;2.70;;;;;;;16.28;76.18;100164.44;5068795;28;20052;-79
2021/08/02 04:25:15;;;;;;;4.95;2.63;;;;;;;16.25;75.84;100162.00;5071362;28;20050;-79
2021/08/02 04:27:42;;;;;;;3.75;2.38;;;;;;;16.21;76.28;100168.56;5073596;28;20391;-79
2021/08/02 04:30:09;;;;;;;4.30;3.10;;;;;;;16.17;76.40;100159.06;5075427;28;20059;-79
2021/08/02 04:32:35;;;;;;;2.83;2.40;;;;;;;16.18;76.22;100163.44;5076071;28;20061;-79
2021/08/02 04:35:03;;;;;;;4.30;2.58;;;;;;;16.19;76.03;100162.47;5070254;28;20129;-79
2021/08/02 04:37:29;;;;;;;4.28;2.42;;;;;;;16.22;75.93;100164.03;5057182;28;20059;-79
2021/08/02 04:39:57;;;;;;;4.30;2.58;;;;;;;16.21;75.87;100165.88;5069175;28;20040;-79
2021/08/02 04:42:24;;;;;;;3.15;2.53;;;;;;;16.17;76.09;100171.56;5066317;28;20064;-79
2021/08/02 04:44:51;;;;;;;4.30;2.20;;;;;;;16.16;76.15;100165.38;5071083;28;20049;-79
2021/08/02 04:47:18;;;;;;;2.85;2.17;;;;;;;16.16;75.94;100165.38;5080730;28;20048;-79
2021/08/02 04:49:45;;;;;;;3.25;2.50;;;;;;;16.14;76.02;100167.28;5077605;28;20415;-79
2021/08/02 04:52:11;;;;;;;5.10;2.60;;;;;;;16.12;76.16;100171.88;5085740;28;20066;-79
2021/08/02 04:54:38;;;;;;;4.13;2.55;;;;;;;16.15;76.49;100169.00;5073493;28;20068;-79
2021/08/02 04:57:05;;;;;;;4.18;2.50;;;;;;;16.23;75.90;100166.59;5081487;28;20044;-79
2021/08/02 04:59:31;;;;;;;8.48;2.50;;;;;;;16.30;75.38;100169.69;5079791;28;20045;-79
2021/08/02 05:01:59;;;;;;;3.67;2.38;;;;;;;16.39;75.43;100177.84;5072752;28;20048;-79
2021/08/02 05:04:26;;;;;;;7.05;3.17;;;;;;;16.51;74.83;100172.59;5070677;28;20055;-79
2021/08/02 05:06:52;;;;;;;4.53;2.60;;;;;;;16.63;74.09;100169.88;5068011;28;20041;-79
2021/08/02 05:09:19;;;;;;;5.85;2.45;;;;;;;16.71;73.76;100167.44;5074818;28;20059;-79
2021/08/02 05:11:46;;;;;;;3.10;2.20;;;;;;;16.74;73.85;100163.69;5058509;28;20074;-79
2021/08/02 05:14:12;;;;;;;3.30;2.30;;;;;;;16.75;73.61;100170.75;5074351;28;20065;-79
2021/08/02 05:16:39;;;;;;;3.10;2.35;;;;;;;16.75;73.56;100165.41;5070757;28;20076;-79
2021/08/02 05:19:06;;;;;;;5.13;2.55;;;;;;;16.75;73.48;100170.75;5055131;28;20052;-79
2021/08/02 05:21:32;;;;;;;3.55;2.53;;;;;;;16.75;73.45;100181.44;5054261;28;20587;-79
2021/08/02 05:23:59;;;;;;;3.25;2.70;;;;;;;16.74;73.51;100183.28;5070409;28;20037;-79
2021/08/02 05:26:26;;;;;;;4.32;3.05;;;;;;;16.72;73.54;100184.34;5077879;28;20373;-79
2021/08/02 05:28:52;;;;;;;5.53;3.08;;;;;;;16.75;73.03;100186.78;5081105;28;20072;-79
2021/08/02 05:31:19;;;;;;;6.15;2.60;;;;;;;16.74;73.29;100179.75;5074225;28;20048;-79
2021/08/02 05:33:46;;;;;;;4.68;2.30;;;;;;;16.82;73.56;100185.38;5075889;28;20044;-79
2021/08/02 05:36:13;;;;;;;4.97;3.13;;;;;;;16.82;73.57;100180.88;5077450;28;20044;-79
2021/08/02 05:38:40;;;;;;;4.60;2.88;;;;;;;16.86;73.33;100184.16;5073438;28;20420;-79
2021/08/02 05:41:06;;;;;;;4.80;3.05;;;;;;;16.89;73.41;100186.59;5068561;28;20045;-79
2021/08/02 05:43:33;;;;;;;5.68;2.90;;;;;;;16.92;73.70;100188.19;5068506;28;20498;-79
2021/08/02 05:46:00;;;;;;;5.45;2.90;;;;;;;16.97;73.59;100192.22;5069266;28;20047;-78
2021/08/02 05:48:29;;;;;;;4.03;2.78;;;;;;;16.98;73.09;100193.94;5054599;28;20045;-79
2021/08/02 05:50:55;;;;;;;3.65;2.72;;;;;;;17.00;73.14;100193.81;5070482;28;20049;-79
2021/08/02 05:53:23;;;;;;;6.30;3.50;;;;;;;16.98;72.81;100187.72;5072659;28;20476;-78
2021/08/02 05:55:49;;;;;;;4.60;3.38;;;;;;;16.97;73.22;100188.69;5070732;28;20045;-77
2021/08/02 05:58:16;;;;;;;6.32;3.20;;;;;;;17.01;72.65;100190.16;5074286;28;20476;-77
2021/08/02 06:00:42;;;;;;;4.57;3.00;;;;;;;17.05;73.39;100200.50;5062786;28;22435;-78
2021/08/02 06:03:09;;;;;;;3.92;3.30;;;;;;;17.15;72.85;100200.66;5070662;28;20032;-80
2021/08/02 06:05:36;;;;;;;3.80;3.33;;;;;;;17.15;72.65;100192.63;5076893;28;20056;-78
2021/08/02 06:08:03;;;;;;;4.25;2.83;;;;;;;17.24;72.40;100204.44;5074088;28;20055;-78
2021/08/02 06:10:30;;;;;;;3.95;3.38;;;;;;;17.29;72.00;100205.78;5059965;28;20810;-78
2021/08/02 06:12:57;;;;;;;7.40;3.92;;;;;;;17.38;71.73;100204.22;5069749;28;20054;-78
2021/08/02 06:15:23;;;;;;;6.95;3.47;;;;;;;17.45;71.76;100194.75;5075352;28;20049;-77
2021/08/02 06:17:50;;;;;;;5.20;3.67;;;;;;;17.47;71.35;100204.34;5074903;28;20046;-78
2021/08/02 06:20:17;;;;;;;5.32;3.65;;;;;;;17.62;71.04;100202.31;5071530;28;20048;-79
2021/08/02 06:22:43;;;;;;;5.22;3.40;;;;;;;17.92;69.18;100199.03;5070824;28;20045;-78
2021/08/02 06:25:10;;;;;;;4.63;3.28;;;;;;;18.29;67.46;100206.75;5082493;28;20113;-78
2021/08/02 06:27:37;;;;;;;4.53;2.92;;;;;;;18.76;65.71;100200.16;5079791;28;20041;-77
2021/08/02 06:30:05;;;;;;;6.53;3.22;;;;;;;19.22;63.69;100197.09;5080306;28;20037;-78
2021/08/02 06:32:32;;;;;;;4.45;2.60;;;;;;;19.46;63.68;100196.81;5079409;28;20045;-78
2021/08/02 06:34:59;;;;;;;5.18;2.92;;;;;;;19.64;61.85;100195.25;5078833;28;20044;-78
2021/08/02 06:37:27;;;;;;;4.78;2.95;;;;;;;19.49;62.05;100193.88;5078948;28;20059;-78
2021/08/02 06:39:53;;;;;;;12.93;3.25;;;;;;;19.49;62.65;100193.88;5074025;28;20045;-78
2021/08/02 06:42:20;;;;;;;7.32;5.15;;;;;;;19.58;62.64;100196.63;5078297;28;20036;-78
2021/08/02 06:44:47;;;;;;;7.13;3.40;;;;;;;19.67;61.36;100203.03;5080156;28;20047;-79
2021/08/02 06:47:14;;;;;;;4.65;3.28;;;;;;;19.53;62.25;100193.47;5078959;28;20127;-78
2021/08/02 06:49:41;;;;;;;8.02;3.13;;;;;;;19.13;62.44;100198.75;5078438;28;20048;-78
2021/08/02 06:52:07;;;;;;;18.50;9.95;;;;;;;18.88;63.71;100199.13;5078721;28;20112;-79
2021/08/02 06:54:34;;;;;;;6.00;3.75;;;;;;;18.68;64.26;100208.84;5082829;28;20083;-79
2021/08/02 06:57:03;;;;;;;5.47;3.10;;;;;;;18.73;64.84;100200.44;5061949;28;20087;-80
2021/08/02 06:59:33;;;;;;;6.30;3.03;;;;;;;18.73;65.30;100205.78;5080329;28;20105;-79
2021/08/02 07:02:00;;;;;;;6.55;2.75;;;;;;;18.69;65.21;100213.25;5083810;28;20052;-79
2021/08/02 07:04:28;;;;;;;4.47;2.17;;;;;;;18.64;65.86;100215.44;5081344;28;20044;-78
2021/08/02 07:06:54;;;;;;;8.73;2.28;;;;;;;18.89;65.04;100216.91;5067523;28;20724;-78
2021/08/02 07:09:21;;;;;;;7.20;2.25;;;;;;;19.40;63.96;100226.88;5074071;28;20053;-79
2021/08/02 07:11:49;;;;;;;7.18;2.50;;;;;;;19.95;61.30;100223.81;5057482;28;20043;-79
2021/08/02 07:14:16;;;;;;;7.22;2.22;;;;;;;20.20;59.90;100216.22;5073214;28;20063;-79
2021/08/02 07:17:01;;;;;;;6.80;2.58;;;;;;;20.43;58.82;100220.41;5067144;28;20456;-80
2021/08/02 07:19:28;;;;;;;4.57;2.28;;;;;;;20.81;57.26;100218.72;5074170;28;20080;-80
2021/08/02 07:21:55;;;;;;;4.03;2.10;;;;;;;21.09;57.28;100222.44;5073807;28;20045;-80
2021/08/02 07:24:21;;;;;;;4.88;1.90;;;;;;;21.10;56.76;100216.88;5065439;28;20057;-80
2021/08/02 07:26:48;;;;;;;3.70;2.30;;;;;;;21.09;56.20;100225.97;5072305;28;20498;-80
2021/08/02 07:29:15;;;;;;;6.03;2.50;;;;;;;20.78;57.16;100222.56;5053602;28;20055;-80
2021/08/02 07:31:42;;;;;;;2.47;2.28;;;;;;;20.56;57.87;100220.16;5074249;28;20400;-80
2021/08/02 07:34:08;;;;;;;6.30;2.45;;;;;;;20.36;58.09;100223.75;5068393;28;20045;-80
2021/08/02 07:36:35;;;;;;;2.67;1.95;;;;;;;20.26;58.99;100216.53;5070631;28;20396;-80
2021/08/02 07:39:02;;;;;;;4.75;2.03;;;;;;;20.32;58.57;100220.47;5057574;28;20470;-80
2021/08/02 07:41:30;;;;;;;3.47;2.10;;;;;;;20.30;58.59;100228.69;5065940;28;20064;-80
2021/08/02 07:43:57;;;;;;;2.75;1.75;;;;;;;20.45;58.44;100225.66;5071927;28;20112;-80
2021/08/02 07:46:24;;;;;;;2.80;1.92;;;;;;;20.71;58.11;100220.59;5060159;28;20273;-79
2021/08/02 07:48:52;;;;;;;2.30;1.50;;;;;;;20.84;57.61;100224.69;5078227;28;20047;-79
2021/08/02 07:51:19;;;;;;;11.05;2.92;;;;;;;20.82;57.33;100223.13;5077414;28;20056;-79
2021/08/02 07:53:46;;;;;;;2.85;1.90;;;;;;;20.75;57.02;100227.38;5074212;28;20860;-79
2021/08/02 07:56:13;;;;;;;2.95;1.73;;;;;;;20.64;57.66;100228.34;5050975;28;20124;-79
2021/08/02 07:58:40;;;;;;;3.40;2.85;;;;;;;20.56;57.62;100229.06;5071440;28;20517;-79
2021/08/02 08:01:06;;;;;;;2.40;2.13;;;;;;;20.52;57.90;100232.16;5053693;28;20398;-79
2021/08/02 08:03:36;;;;;;;14.93;2.80;;;;;;;20.43;59.04;100228.50;5067165;28;20725;-78
2021/08/02 08:06:04;;;;;;;3.15;1.90;;;;;;;20.37;59.15;100226.34;5071272;28;20075;-79
2021/08/02 08:08:31;;;;;;;3.30;2.25;;;;;;;20.23;59.39;100221.31;5066525;28;20130;-79
2021/08/02 08:10:58;;;;;;;2.58;1.80;;;;;;;20.24;59.78;100218.50;5068678;28;20384;-80
2021/08/02 08:13:25;;;;;;;3.72;2.05;;;;;;;20.33;59.34;100230.25;5064798;28;20053;-80
2021/08/02 08:15:51;;;;;;;5.05;1.60;;;;;;;20.25;58.70;100228.28;5056146;28;20061;-79
2021/08/02 08:18:19;;;;;;;4.38;1.73;;;;;;;20.44;58.57;100221.28;5068665;28;20068;-79
2021/08/02 08:20:46;;;;;;;3.60;1.70;;;;;;;20.80;58.28;100220.56;5070258;28;20411;-79
2021/08/02 08:23:12;;;;;;;2.67;1.60;;;;;;;21.25;57.05;100226.22;5072681;28;20645;-78
2021/08/02 08:25:42;;;;;;;4.32;1.70;;;;;;;21.50;55.75;100229.31;5070953;28;20043;-79
2021/08/02 08:28:10;;;;;;;2.63;1.52;;;;;;;21.52;55.04;100221.94;5072121;28;20047;-79
2021/08/02 08:30:36;;;;;;;2.58;1.60;;;;;;;21.45;54.62;100231.59;5050350;28;20159;-79
2021/08/02 08:33:03;;;;;;;3.22;1.70;;;;;;;21.36;55.63;100225.25;5071598;28;20133;-80
2021/08/02 08:35:30;;;;;;;2.83;1.63;;;;;;;21.33;55.60;100233.59;5069182;28;20056;-80
2021/08/02 08:37:56;;;;;;;12.65;2.72;;;;;;;21.20;55.78;100233.06;5068817;28;20071;-78
2021/08/02 08:40:23;;;;;;;5.15;1.92;;;;;;;21.23;55.93;100232.78;5068633;28;20050;-78
2021/08/02 08:42:50;;;;;;;3.28;1.70;;;;;;;21.29;56.13;100227.66;5068371;28;20072;-79
2021/08/02 08:45:18;;;;;;;3.22;1.83;;;;;;;21.42;55.57;100227.34;5067193;28;20049;-78
2021/08/02 08:47:46;;;;;;;2.78;1.35;;;;;;;21.40;56.02;100217.72;5050091;28;20053;-78
2021/08/02 08:50:12;;;;;;;6.22;2.03;;;;;;;21.35;55.37;100220.84;5069746;28;20048;-79
2021/08/02 08:52:39;;;;;;;3.13;1.58;;;;;;;21.30;55.31;100229.34;5072254;28;20062;-79
2021/08/02 08:55:13;;;;;;;5.68;1.85;;;;;;;21.27;55.94;100229.63;5066757;28;20057;-79
2021/08/02 08:57:44;;;;;;;4.55;1.85;;;;;;;21.23;55.62;100228.25;5063028;28;20077;-79
2021/08/02 09:00:25;;;;;;;1.88;1.50;;;;;;;21.26;55.98;100227.94;5083390;28;20048;-78
2021/08/02 09:02:53;;;;;;;5.15;1.95;;;;;;;21.17;55.45;100233.31;5071028;28;20182;-79
2021/08/02 09:05:35;;;;;;;4.70;1.83;;;;;;;21.15;55.70;100228.06;5072033;28;20052;-79
2021/08/02 09:08:03;;;;;;;7.18;1.90;;;;;;;20.97;55.78;100219.00;5074370;28;20054;-80
2021/08/02 09:10:30;;;;;;;3.78;1.65;;;;;;;20.94;56.23;100216.59;5072124;28;20423;-79
2021/08/02 09:13:00;;;;;;;1.95;1.30;;;;;;;21.01;55.92;100223.13;5073938;28;20044;-79
2021/08/02 09:15:34;;;;;;;3.72;1.70;;;;;;;21.17;55.93;100222.53;5071471;28;20312;-79
2021/08/02 09:18:04;;;;;;;3.30;1.55;;;;;;;21.26;55.94;100233.31;5073259;28;20084;-79
2021/08/02 09:20:31;;;;;;;3.13;1.60;;;;;;;21.24;55.78;100235.34;5079833;28;20140;-79
2021/08/02 09:23:07;;;;;;;3.22;1.65;;;;;;;21.11;55.64;100229.34;5080892;28;20079;-79
2021/08/02 09:25:35;;;;;;;3.33;1.50;;;;;;;21.03;55.39;100229.22;5061236;28;20055;-78
2021/08/02 09:28:14;;;;;;;2.90;1.35;;;;;;;20.98;56.37;100232.31;5075257;28;20045;-80
2021/08/02 09:31:03;;;;;;;5.20;1.70;;;;;;;21.14;55.55;100237.13;5079544;28;20477;-79
2021/08/02 09:33:44;;;;;;;2.08;1.80;;;;;;;21.44;55.17;100224.50;5077360;28;20061;-79
2021/08/02 09:36:15;;;;;;;8.55;2.00;;;;;;;21.64;55.25;100226.16;5081997;28;20053;-79
2021/08/02 09:38:46;;;;;;;3.83;1.85;;;;;;;21.78;53.73;100228.38;5059787;28;20045;-80
2021/08/02 09:41:21;;;;;;;3.22;1.88;;;;;;;21.84;53.82;100225.09;5083081;28;20140;-79
2021/08/02 09:43:52;;;;;;;3.97;2.08;;;;;;;21.79;55.96;100223.81;5052063;28;20051;-78
2021/08/02 09:46:21;;;;;;;9.77;2.17;;;;;;;21.63;56.51;100209.13;5082600;28;20131;-79
2021/08/02 09:48:50;;;;;;;5.63;1.98;;;;;;;21.73;56.51;100210.94;5079852;28;20492;-79
2021/08/02 09:51:19;;;;;;;3.03;1.73;;;;;;;21.82;54.90;100219.00;5086655;28;20044;-78
2021/08/02 09:53:50;;;;;;;4.95;1.80;;;;;;;21.75;55.77;100212.47;5086480;28;20040;-79
2021/08/02 09:56:22;;;;;;;2.88;1.60;;;;;;;21.67;55.57;100201.59;5082502;28;20090;-80
2021/08/02 09:59:07;;;;;;;3.53;2.00;;;;;;;21.71;56.14;100208.41;5073092;28;20086;-78
2021/08/02 10:01:35;;;;;;;4.97;1.60;;;;;;;21.74;55.59;100210.78;5072887;28;20049;-80
2021/08/02 10:04:04;;;;;;;3.78;1.77;;;;;;;21.76;55.36;100210.63;5074571;28;20041;-80
2021/08/02 10:06:32;;;;;;;2.20;1.77;;;;;;;21.70;56.30;100206.72;5070164;28;20404;-79
2021/08/02 10:09:03;;;;;;;4.43;2.05;;;;;;;21.61;56.16;100207.56;5069864;28;20048;-80
2021/08/02 10:11:33;;;;;;;3.55;1.60;;;;;;;21.61;55.90;100197.66;5044510;28;20054;-79
2021/08/02 10:14:01;;;;;;;2.65;1.75;;;;;;;21.67;55.96;100204.31;5078693;28;20053;-79
2021/08/02 10:16:38;;;;;;;5.57;2.00;;;;;;;21.70;56.04;100204.00;5076667;28;20044;-79
2021/08/02 10:19:07;;;;;;;3.65;1.80;;;;;;;21.83;55.42;100193.75;5074258;28;20045;-80
2021/08/02 10:21:45;;;;;;;3.90;1.95;;;;;;;22.14;55.35;100198.84;5051995;28;20447;-79
2021/08/02 10:24:14;;;;;;;4.80;1.48;;;;;;;22.38;53.66;100191.88;5082555;28;20566;-80
2021/08/02 10:26:56;;;;;;;4.18;1.67;;;;;;;22.49;52.83;100190.81;5079304;28;20055;-79
2021/08/02 10:29:23;;;;;;;4.03;1.80;;;;;;;22.60;52.18;100187.03;5076224;28;20052;-78
2021/08/02 10:31:51;;;;;;;2.25;1.52;;;;;;;22.65;52.00;100179.34;5073539;28;20045;-78
2021/08/02 10:34:23;;;;;;;3.50;1.88;;;;;;;22.80;50.86;100176.97;5074277;28;20079;-79
2021/08/02 10:37:02;;;;;;;2.03;1.40;;;;;;;22.77;50.30;100188.06;5052266;28;20072;-78
2021/08/02 10:39:34;;;;;;;2.08;1.38;;;;;;;22.82;50.91;100177.66;5063607;28;20052;-78
2021/08/02 10:42:08;;;;;;;3.72;1.85;;;;;;;22.96;50.87;100175.25;5076853;28;20036;-79
2021/08/02 10:44:57;;;;;;;4.43;1.75;;;;;;;23.14;50.22;100175.19;5065903;28;20045;-77
2021/08/02 10:47:39;;;;;;;2.42;2.00;;;;;;;23.15;50.12;100165.25;5067277;28;20072;-78
2021/08/02 10:50:08;;;;;;;3.35;1.85;;;;;;;23.16;49.98;100170.50;5068132;28;20045;-78
2021/08/02 10:52:35;;;;;;;3.25;1.55;;;;;;;23.27;49.19;100159.44;5072048;28;20070;-79
2021/08/02 10:55:15;;;;;;;2.60;1.52;;;;;;;23.42;48.01;100157.84;5073500;28;20065;-79
2021/08/02 10:57:55;;;;;;;3.15;1.70;;;;;;;23.29;48.14;100156.59;5074074;28;20053;-78
2021/08/02 11:00:24;;;;;;;3.42;1.83;;;;;;;23.11;49.02;100158.47;5067586;28;20048;-79
2021/08/02 11:02:53;;;;;;;3.33;1.83;;;;;;;23.28;48.08;100150.34;5050922;28;20055;-78
2021/08/02 11:05:22;;;;;;;2.35;1.52;;;;;;;23.42;47.46;100155.13;5068262;28;20064;-79
2021/08/02 11:07:52;;;;;;;2.70;1.30;;;;;;;23.64;47.02;100150.19;5053155;28;20051;-79
2021/08/02 11:10:19;;;;;;;3.95;1.83;;;;;;;23.80;45.93;100144.88;5069454;28;20053;-78
2021/08/02 11:12:47;;;;;;;5.45;1.75;;;;;;;23.83;46.51;100149.94;5074056;28;20048;-78
2021/08/02 11:15:15;;;;;;;3.72;1.40;;;;;;;23.76;45.93;100146.22;5070993;28;20059;-78
2021/08/02 11:17:52;;;;;;;2.67;1.38;;;;;;;23.66;46.95;100157.13;5064431;28;20064;-78
2021/08/02 11:20:21;;;;;;;2.60;1.43;;;;;;;23.73;46.91;100157.34;5068135;28;20048;-78
2021/08/02 11:22:55;;;;;;;2.33;1.52;;;;;;;23.74;47.08;100159.91;5069874;28;20106;-79
2021/08/02 11:25:30;;;;;;;3.00;1.50;;;;;;;23.71;46.44;100156.66;5044678;28;20045;-78
2021/08/02 11:27:59;;;;;;;3.47;1.77;;;;;;;23.65;46.55;100157.31;5069387;28;20041;-79
2021/08/02 11:30:27;;;;;;;4.27;1.40;;;;;;;23.54;46.34;100160.28;5072913;28;20049;-79
2021/08/02 11:32:56;;;;;;;4.70;1.50;;;;;;;23.43;46.48;100164.09;5071315;28;20492;-79
2021/08/02 11:35:37;;;;;;;2.60;1.63;;;;;;;23.58;46.65;100165.22;5066641;28;20395;-79